createdAt,value
2023-03-26T00:00:32.770Z,99241.28
2023-03-26T00:01:17.839Z,99252.75
2023-03-26T00:01:59.549Z,99246.66
2023-03-26T00:02:41.647Z,99244.81
2023-03-26T00:03:23.304Z,99253.41
2023-03-26T00:04:06.711Z,99239.09
2023-03-26T00:04:48.485Z,99247.03
2023-03-26T00:05:32.062Z,99243.56
2023-03-26T00:06:16.137Z,99247.84
2023-03-26T00:06:57.795Z,99243.56
2023-03-26T00:07:39.977Z,99246.38
2023-03-26T00:08:22.038Z,99243.09
2023-03-26T00:09:04.765Z,99232.84
2023-03-26T00:09:46.373Z,99236.31
2023-03-26T00:10:28.008Z,99252.03
2023-03-26T00:11:11.495Z,99251.03
2023-03-26T00:11:53.129Z,99247.75
2023-03-26T00:12:34.712Z,99249.34
2023-03-26T00:13:16.263Z,99247.72
2023-03-26T00:13:58.658Z,99252.00
2023-03-26T00:14:40.812Z,99248.88
2023-03-26T00:15:22.537Z,99246.88
2023-03-26T00:16:05.216Z,99247.06
2023-03-26T00:16:47.465Z,99247.25
2023-03-26T00:17:29.362Z,99242.28
2023-03-26T00:18:11.050Z,99243.72
2023-03-26T00:18:53.432Z,99214.63
2023-03-26T00:19:35.105Z,99213.72
2023-03-26T00:20:16.800Z,99249.03
2023-03-26T00:21:00.116Z,99240.06
2023-03-26T00:21:41.906Z,99233.41
2023-03-26T00:22:23.636Z,99245.88
2023-03-26T00:23:05.411Z,99251.16
2023-03-26T00:23:48.994Z,99244.25
2023-03-26T00:24:30.694Z,99225.59
2023-03-26T00:25:13.594Z,99242.16
2023-03-26T00:25:56.607Z,99245.78
2023-03-26T00:26:38.776Z,99239.06
2023-03-26T00:27:20.371Z,99244.53
2023-03-26T00:28:03.778Z,99251.19
2023-03-26T00:28:45.411Z,99250.53
2023-03-26T00:29:27.995Z,99253.75
2023-03-26T00:30:09.991Z,99235.47
2023-03-26T00:31:02.629Z,99253.84
2023-03-26T00:31:45.874Z,99250.94
2023-03-26T00:32:28.513Z,99249.03
2023-03-26T00:33:11.905Z,99251.97
2023-03-26T00:33:56.586Z,99247.91
2023-03-26T00:34:41.196Z,99241.88
2023-03-26T00:35:23.906Z,99240.88
2023-03-26T00:36:19.946Z,99251.44
2023-03-26T00:37:03.073Z,99258.72
2023-03-26T00:37:46.063Z,99251.72
2023-03-26T00:38:28.892Z,99242.69
2023-03-26T00:39:10.545Z,99236.97
2023-03-26T00:40:02.438Z,99250.91
2023-03-26T00:40:44.050Z,99256.53
2023-03-26T00:41:26.895Z,99254.88
2023-03-26T00:42:08.780Z,99247.16
2023-03-26T00:42:50.604Z,99253.63
2023-03-26T00:43:35.145Z,99253.63
2023-03-26T00:44:16.788Z,99266.19
2023-03-26T00:44:58.634Z,99241.22
2023-03-26T00:45:40.334Z,99252.25
2023-03-26T00:46:27.023Z,99261.78
2023-03-26T00:47:08.839Z,99248.31
2023-03-26T00:47:50.593Z,99237.09
2023-03-26T00:48:44.570Z,99242.38
2023-03-26T00:49:27.394Z,99247.78
2023-03-26T00:50:15.294Z,99265.41
2023-03-26T00:50:57.181Z,99248.19
2023-03-26T00:51:39.091Z,99255.56
2023-03-26T00:52:21.637Z,99256.94
2023-03-26T00:53:03.340Z,99238.44
2023-03-26T00:53:47.305Z,99252.06
2023-03-26T00:54:29.588Z,99256.97
2023-03-26T00:55:11.278Z,99253.69
2023-03-26T00:55:53.428Z,99237.47
2023-03-26T00:56:35.835Z,99240.94
2023-03-26T00:57:28.907Z,99253.09
2023-03-26T00:58:16.399Z,99241.41
2023-03-26T00:59:00.166Z,99232.38
2023-03-26T00:59:42.236Z,99249.31
2023-03-26T01:00:34.900Z,99219.09
2023-03-26T01:01:21.436Z,99242.06
2023-03-26T01:02:04.361Z,99235.03
2023-03-26T01:02:46.958Z,99244.34
2023-03-26T01:03:30.854Z,99240.50
2023-03-26T01:04:31.917Z,99220.66
2023-03-26T01:05:33.845Z,99242.09
2023-03-26T01:06:27.809Z,99231.56
2023-03-26T01:07:21.669Z,99232.81
2023-03-26T01:08:15.058Z,99235.09
2023-03-26T01:08:59.990Z,99229.47
2023-03-26T01:09:44.977Z,99229.13
2023-03-26T01:10:26.611Z,99218.28
2023-03-26T01:11:18.417Z,99225.13
2023-03-26T01:12:06.643Z,99231.22
2023-03-26T01:12:48.381Z,99224.94
2023-03-26T01:13:32.897Z,99231.69
2023-03-26T01:14:18.264Z,99230.69
2023-03-26T01:15:01.592Z,99227.03
2023-03-26T01:15:49.787Z,99193.53
2023-03-26T01:16:37.235Z,99203.75
2023-03-26T01:17:19.103Z,99209.94
2023-03-26T01:18:04.792Z,99221.59
2023-03-26T01:18:47.037Z,99212.84
2023-03-26T01:19:45.252Z,99201.09
2023-03-26T01:20:30.374Z,99198.28
2023-03-26T01:21:13.792Z,99191.09
2023-03-26T01:21:55.948Z,99208.63
2023-03-26T01:22:39.585Z,99206.81
2023-03-26T01:23:24.739Z,99208.47
2023-03-26T01:24:08.349Z,99213.56
2023-03-26T01:24:56.457Z,99215.19
2023-03-26T01:25:44.403Z,99212.38
2023-03-26T01:27:04.495Z,99203.66
2023-03-26T01:27:50.222Z,99212.22
2023-03-26T01:28:35.049Z,99202.19
2023-03-26T01:29:40.758Z,99209.56
2023-03-26T01:30:49.566Z,99208.28
2023-03-26T01:31:39.507Z,99199.47
2023-03-26T01:32:50.344Z,99204.81
2023-03-26T01:33:46.106Z,99201.59
2023-03-26T01:34:49.645Z,99184.00
2023-03-26T01:35:41.918Z,99195.19
2023-03-26T01:36:34.603Z,99199.34
2023-03-26T01:37:32.586Z,99180.59
2023-03-26T01:38:46.653Z,99194.06
2023-03-26T01:39:38.833Z,99193.75
2023-03-26T01:40:38.669Z,99167.06
2023-03-26T01:41:30.339Z,99187.91
2023-03-26T01:42:17.576Z,99189.25
2023-03-26T01:43:16.254Z,99187.59
2023-03-26T01:44:07.359Z,99185.69
2023-03-26T01:45:01.213Z,99182.41
2023-03-26T01:45:46.154Z,99189.00
2023-03-26T01:46:29.187Z,99159.50
2023-03-26T01:47:13.101Z,99180.16
2023-03-26T01:47:54.941Z,99183.97
2023-03-26T01:48:42.787Z,99179.22
2023-03-26T01:49:28.023Z,99183.81
2023-03-26T01:50:10.385Z,99173.69
2023-03-26T01:50:56.210Z,99173.66
2023-03-26T01:51:37.881Z,99174.81
2023-03-26T01:52:25.201Z,99167.09
2023-03-26T01:53:09.100Z,99177.16
2023-03-26T01:53:50.872Z,99161.06
2023-03-26T01:54:34.010Z,99155.31
2023-03-26T01:55:15.948Z,99151.91
2023-03-26T01:56:10.827Z,99164.03
2023-03-26T01:57:17.890Z,99167.31
2023-03-26T01:58:10.410Z,99167.16
2023-03-26T01:59:00.757Z,99168.91
2023-03-26T02:00:11.740Z,99170.31
2023-03-26T02:01:08.188Z,99154.34
2023-03-26T02:01:55.788Z,99168.41
2023-03-26T02:02:55.879Z,99163.97
2023-03-26T02:03:46.736Z,99159.03
2023-03-26T02:04:41.017Z,99161.19
2023-03-26T02:05:29.651Z,99151.19
2023-03-26T02:06:26.110Z,99158.72
2023-03-26T02:07:21.218Z,99152.84
2023-03-26T02:08:13.525Z,99160.50
2023-03-26T02:09:05.456Z,99142.25
2023-03-26T02:09:52.628Z,99160.25
2023-03-26T02:10:38.934Z,99166.66
2023-03-26T02:11:21.608Z,99137.16
2023-03-26T02:12:06.681Z,99131.41
2023-03-26T02:12:48.962Z,99156.22
2023-03-26T02:13:31.191Z,99145.28
2023-03-26T02:14:14.529Z,99153.88
2023-03-26T02:14:58.872Z,99145.38
2023-03-26T02:15:41.015Z,99148.34
2023-03-26T02:16:22.645Z,99144.44
2023-03-26T02:17:04.935Z,99145.28
2023-03-26T02:17:46.931Z,99136.56
2023-03-26T02:18:41.547Z,99141.09
2023-03-26T02:19:24.594Z,99137.16
2023-03-26T02:20:11.111Z,99132.19
2023-03-26T02:20:53.028Z,99093.19
2023-03-26T02:21:34.991Z,99126.44
2023-03-26T02:22:16.898Z,99128.41
2023-03-26T02:22:59.834Z,99124.31
2023-03-26T02:23:46.886Z,99125.13
2023-03-26T02:24:28.754Z,99118.72
2023-03-26T02:25:16.025Z,99119.53
2023-03-26T02:25:57.808Z,99122.63
2023-03-26T02:26:39.835Z,99115.72
2023-03-26T02:27:24.637Z,99103.25
2023-03-26T02:28:06.376Z,99115.56
2023-03-26T02:28:48.117Z,99113.44
2023-03-26T02:29:30.659Z,99093.88
2023-03-26T02:30:25.572Z,99113.91
2023-03-26T02:31:11.095Z,99105.84
2023-03-26T02:31:52.867Z,99107.47
2023-03-26T02:32:35.249Z,99099.75
2023-03-26T02:33:17.291Z,99092.22
2023-03-26T02:33:58.934Z,99105.94
2023-03-26T02:34:43.079Z,99110.06
2023-03-26T02:35:24.879Z,99103.97
2023-03-26T02:36:13.943Z,99104.78
2023-03-26T02:37:00.740Z,99075.66
2023-03-26T02:37:46.775Z,99111.75
2023-03-26T02:38:35.893Z,99096.25
2023-03-26T02:39:18.935Z,99101.53
2023-03-26T02:40:11.589Z,99101.94
2023-03-26T02:40:56.382Z,99108.25
2023-03-26T02:41:47.236Z,99093.50
2023-03-26T02:42:28.880Z,99079.09
2023-03-26T02:43:10.581Z,99091.22
2023-03-26T02:43:52.729Z,99098.28
2023-03-26T02:44:40.101Z,99086.94
2023-03-26T02:45:27.531Z,98995.59
2023-03-26T02:46:35.339Z,99067.38
2023-03-26T02:47:40.230Z,99084.88
2023-03-26T02:48:44.537Z,99076.81
2023-03-26T02:49:33.817Z,99083.00
2023-03-26T02:50:16.388Z,99081.84
2023-03-26T02:51:25.237Z,99062.59
2023-03-26T02:52:17.007Z,99079.47
2023-03-26T02:52:58.855Z,99061.19
2023-03-26T02:53:41.454Z,99054.00
2023-03-26T02:54:39.604Z,99070.50
2023-03-26T02:55:21.259Z,99068.03
2023-03-26T02:56:05.186Z,99073.06
2023-03-26T02:56:54.106Z,99016.22
2023-03-26T02:57:54.410Z,99068.34
2023-03-26T02:58:42.599Z,99048.66
2023-03-26T02:59:24.285Z,99056.13
2023-03-26T03:00:26.074Z,99054.97
2023-03-26T03:01:26.315Z,99041.59
2023-03-26T03:02:09.788Z,99051.88
2023-03-26T03:02:54.134Z,99004.84
2023-03-26T03:03:47.205Z,99055.22
2023-03-26T03:04:40.359Z,99055.88
2023-03-26T03:05:26.223Z,99045.06
2023-03-26T03:06:30.884Z,99036.88
2023-03-26T03:07:17.882Z,99041.97
2023-03-26T03:07:59.753Z,99048.69
2023-03-26T03:08:45.909Z,99050.69
2023-03-26T03:09:43.929Z,99032.69
2023-03-26T03:10:56.898Z,99038.69
2023-03-26T03:11:48.281Z,99050.34
2023-03-26T03:12:29.876Z,99039.50
2023-03-26T03:13:11.478Z,98937.84
2023-03-26T03:13:54.132Z,99050.34
2023-03-26T03:14:43.708Z,99053.09
2023-03-26T03:15:25.409Z,99028.38
2023-03-26T03:16:07.763Z,99037.78
2023-03-26T03:16:49.496Z,99047.91
2023-03-26T03:17:31.164Z,99051.53
2023-03-26T03:18:12.868Z,99047.53
2023-03-26T03:18:57.436Z,99050.81
2023-03-26T03:19:42.380Z,99049.31
2023-03-26T03:20:24.106Z,99052.13
2023-03-26T03:21:06.324Z,99033.03
2023-03-26T03:21:47.970Z,99049.06
2023-03-26T03:22:29.700Z,99054.50
2023-03-26T03:23:11.564Z,99050.03
2023-03-26T03:23:54.756Z,99048.41
2023-03-26T03:24:36.495Z,99038.59
2023-03-26T03:25:18.227Z,99020.38
2023-03-26T03:26:02.513Z,99048.69
2023-03-26T03:26:46.161Z,99052.59
2023-03-26T03:27:39.140Z,99027.47
2023-03-26T03:28:26.627Z,99033.25
2023-03-26T03:29:09.201Z,99036.16
2023-03-26T03:29:53.583Z,99028.78
2023-03-26T03:31:01.100Z,99038.38
2023-03-26T03:31:46.751Z,99044.25
2023-03-26T03:32:43.153Z,99035.19
2023-03-26T03:33:25.193Z,99037.47
2023-03-26T03:34:06.817Z,99034.66
2023-03-26T03:34:51.960Z,99031.38
2023-03-26T03:35:33.915Z,99014.19
2023-03-26T03:36:20.343Z,99025.81
2023-03-26T03:37:06.148Z,98998.56
2023-03-26T03:37:58.074Z,99038.38
2023-03-26T03:38:41.329Z,99029.84
2023-03-26T03:39:24.455Z,98995.63
2023-03-26T03:40:10.628Z,99032.38
2023-03-26T03:40:55.349Z,98998.84
2023-03-26T03:41:41.151Z,99019.63
2023-03-26T03:42:27.560Z,99009.00
2023-03-26T03:43:11.920Z,99010.81
2023-03-26T03:44:03.789Z,98961.09
2023-03-26T03:44:47.247Z,99013.47
2023-03-26T03:45:51.594Z,98962.72
2023-03-26T03:46:45.447Z,99021.44
2023-03-26T03:47:27.187Z,99019.00
2023-03-26T03:48:08.958Z,98954.56
2023-03-26T03:48:54.915Z,99016.91
2023-03-26T03:49:50.286Z,99007.72
2023-03-26T03:50:33.730Z,99014.81
2023-03-26T03:51:43.121Z,99006.44
2023-03-26T03:52:40.140Z,99011.06
2023-03-26T03:53:25.961Z,99000.25
2023-03-26T03:54:09.047Z,99001.72
2023-03-26T03:55:14.064Z,98967.97
2023-03-26T03:56:04.182Z,98993.72
2023-03-26T03:57:05.774Z,98989.78
2023-03-26T03:57:47.498Z,98987.34
2023-03-26T03:58:34.511Z,98946.44
2023-03-26T03:59:24.497Z,98980.72
2023-03-26T04:00:09.019Z,98996.72
2023-03-26T04:01:08.052Z,98986.38
2023-03-26T04:02:05.286Z,98987.03
2023-03-26T04:02:54.385Z,98949.31
2023-03-26T04:03:39.112Z,98859.66
2023-03-26T04:04:25.922Z,98925.97
2023-03-26T04:05:13.372Z,98979.84
2023-03-26T04:06:00.563Z,98970.50
2023-03-26T04:06:43.554Z,98986.66
2023-03-26T04:07:32.706Z,98982.03
2023-03-26T04:08:24.306Z,98978.69
2023-03-26T04:09:10.303Z,98970.13
2023-03-26T04:09:53.090Z,98978.28
2023-03-26T04:10:36.746Z,98970.78
2023-03-26T04:11:21.303Z,98969.38
2023-03-26T04:12:23.207Z,98972.00
2023-03-26T04:13:15.583Z,98967.56
2023-03-26T04:14:10.239Z,98945.13
2023-03-26T04:15:24.229Z,98968.03
2023-03-26T04:16:06.097Z,98963.56
2023-03-26T04:16:49.065Z,98958.19
2023-03-26T04:17:30.867Z,98959.66
2023-03-26T04:18:12.650Z,98963.28
2023-03-26T04:18:58.180Z,98961.22
2023-03-26T04:19:40.232Z,98979.66
2023-03-26T04:20:23.985Z,98954.03
2023-03-26T04:21:07.453Z,98951.41
2023-03-26T04:21:49.510Z,98952.31
2023-03-26T04:22:36.382Z,98948.97
2023-03-26T04:23:22.403Z,98944.69
2023-03-26T04:24:10.797Z,98937.03
2023-03-26T04:25:21.387Z,98932.34
2023-03-26T04:26:10.360Z,98946.69
2023-03-26T04:27:20.376Z,98950.88
2023-03-26T04:28:07.284Z,98948.78
2023-03-26T04:29:16.913Z,98931.41
2023-03-26T04:30:00.957Z,98943.78
2023-03-26T04:30:44.985Z,98939.16
2023-03-26T04:31:43.126Z,98942.41
2023-03-26T04:32:30.047Z,98915.06
2023-03-26T04:33:15.450Z,98935.78
2023-03-26T04:34:07.599Z,98923.22
2023-03-26T04:35:03.078Z,98925.69
2023-03-26T04:35:46.103Z,98927.78
2023-03-26T04:36:32.103Z,98907.00
2023-03-26T04:37:32.327Z,98916.31
2023-03-26T04:38:21.721Z,98846.06
2023-03-26T04:39:06.671Z,98904.59
2023-03-26T04:40:21.933Z,98906.28
2023-03-26T04:41:26.769Z,98893.91
2023-03-26T04:42:12.486Z,98891.75
2023-03-26T04:43:06.835Z,98821.22
2023-03-26T04:44:08.777Z,98880.25
2023-03-26T04:45:22.594Z,98873.97
2023-03-26T04:46:10.600Z,98882.53
2023-03-26T04:47:00.349Z,98882.53
2023-03-26T04:47:59.124Z,98868.28
2023-03-26T04:48:41.042Z,98871.34
2023-03-26T04:49:25.310Z,98875.25
2023-03-26T04:50:09.379Z,98877.88
2023-03-26T04:50:52.034Z,98877.88
2023-03-26T04:51:38.492Z,98876.88
2023-03-26T04:52:28.295Z,98881.69
2023-03-26T04:53:14.850Z,98871.34
2023-03-26T04:54:18.613Z,98857.66
2023-03-26T04:55:51.295Z,98880.38
2023-03-26T04:56:58.288Z,98880.31
2023-03-26T04:57:53.620Z,98874.31
2023-03-26T04:59:00.462Z,98879.50
2023-03-26T04:59:43.807Z,98875.03
2023-03-26T05:00:28.542Z,98874.84
2023-03-26T05:01:13.778Z,98867.75
2023-03-26T05:02:00.028Z,98879.38
2023-03-26T05:02:43.399Z,98877.38
2023-03-26T05:03:25.626Z,98858.72
2023-03-26T05:04:08.610Z,98864.25
2023-03-26T05:04:50.836Z,98863.88
2023-03-26T05:05:33.511Z,98861.88
2023-03-26T05:06:17.685Z,98862.50
2023-03-26T05:06:59.716Z,98860.50
2023-03-26T05:07:57.302Z,98834.56
2023-03-26T05:08:38.974Z,98864.69
2023-03-26T05:09:21.418Z,98867.06
2023-03-26T05:10:35.362Z,98866.00
2023-03-26T05:11:26.421Z,98856.41
2023-03-26T05:12:08.105Z,98859.22
2023-03-26T05:13:01.354Z,98863.03
2023-03-26T05:13:48.140Z,98838.53
2023-03-26T05:14:29.838Z,98839.53
2023-03-26T05:15:12.909Z,98859.72
2023-03-26T05:16:13.099Z,98847.44
2023-03-26T05:17:01.522Z,98850.72
2023-03-26T05:17:43.460Z,98855.16
2023-03-26T05:18:33.503Z,98847.25
2023-03-26T05:19:16.193Z,98846.44
2023-03-26T05:19:58.151Z,98835.66
2023-03-26T05:20:40.233Z,98846.00
2023-03-26T05:21:23.480Z,98830.75
2023-03-26T05:22:05.377Z,98839.91
2023-03-26T05:22:50.824Z,98838.28
2023-03-26T05:23:40.299Z,98788.28
2023-03-26T05:24:39.797Z,98810.50
2023-03-26T05:25:21.837Z,98824.47
2023-03-26T05:26:03.810Z,98816.66
2023-03-26T05:26:45.494Z,98835.03
2023-03-26T05:27:28.911Z,98823.09
2023-03-26T05:28:10.966Z,98826.63
2023-03-26T05:29:05.132Z,98831.97
2023-03-26T05:30:01.042Z,98836.31
2023-03-26T05:30:43.628Z,98842.81
2023-03-26T05:31:27.956Z,98827.47
2023-03-26T05:32:12.362Z,98833.00
2023-03-26T05:32:54.805Z,98832.41
2023-03-26T05:33:41.476Z,98834.69
2023-03-26T05:34:27.218Z,98834.31
2023-03-26T05:35:09.448Z,98776.38
2023-03-26T05:36:01.503Z,98831.53
2023-03-26T05:36:44.896Z,98835.44
2023-03-26T05:37:49.704Z,98830.81
2023-03-26T05:38:35.779Z,98837.50
2023-03-26T05:39:19.221Z,98822.88
2023-03-26T05:40:30.069Z,98808.44
2023-03-26T05:41:15.290Z,98817.84
2023-03-26T05:41:58.767Z,98812.56
2023-03-26T05:42:51.231Z,98819.75
2023-03-26T05:43:49.111Z,98803.47
2023-03-26T05:44:35.266Z,98813.69
2023-03-26T05:45:22.314Z,98811.03
2023-03-26T05:46:04.221Z,98797.41
2023-03-26T05:46:47.201Z,98794.84
2023-03-26T05:47:35.475Z,98805.44
2023-03-26T05:48:17.286Z,98794.06
2023-03-26T05:48:58.872Z,98805.06
2023-03-26T05:49:42.957Z,98743.50
2023-03-26T05:50:25.024Z,98801.03
2023-03-26T05:51:12.204Z,98798.22
2023-03-26T05:51:57.307Z,98761.88
2023-03-26T05:52:53.179Z,98798.63
2023-03-26T05:53:53.604Z,98781.13
2023-03-26T05:55:01.359Z,98790.47
2023-03-26T05:56:01.997Z,98771.13
2023-03-26T05:57:03.938Z,98793.75
2023-03-26T05:58:04.070Z,98785.56
2023-03-26T05:59:24.045Z,98780.88
2023-03-26T06:00:25.649Z,98779.25
2023-03-26T06:01:10.825Z,98762.31
2023-03-26T06:02:12.402Z,98754.78
2023-03-26T06:03:14.814Z,98754.78
2023-03-26T06:04:18.285Z,98760.91
2023-03-26T06:05:12.438Z,98769.72
2023-03-26T06:06:18.532Z,98759.56
2023-03-26T06:07:09.954Z,98760.00
2023-03-26T06:07:52.111Z,98761.63
2023-03-26T06:08:34.594Z,98760.00
2023-03-26T06:09:16.981Z,98759.44
2023-03-26T06:09:58.662Z,98730.88
2023-03-26T06:10:40.434Z,98737.63
2023-03-26T06:11:22.204Z,98746.63
2023-03-26T06:12:07.389Z,98759.66
2023-03-26T06:12:49.676Z,98755.63
2023-03-26T06:13:31.684Z,98761.72
2023-03-26T06:14:13.298Z,98755.00
2023-03-26T06:15:08.759Z,98754.25
2023-03-26T06:16:10.330Z,98742.66
2023-03-26T06:17:12.457Z,98721.84
2023-03-26T06:18:12.718Z,98740.97
2023-03-26T06:19:03.051Z,98731.22
2023-03-26T06:20:01.115Z,98729.97
2023-03-26T06:20:53.083Z,98738.97
2023-03-26T06:21:42.562Z,98735.13
2023-03-26T06:22:30.332Z,98721.06
2023-03-26T06:23:51.586Z,98740.81
2023-03-26T06:24:54.859Z,98747.19
2023-03-26T06:25:50.137Z,98722.34
2023-03-26T06:26:50.442Z,98730.97
2023-03-26T06:27:45.381Z,98734.47
2023-03-26T06:28:41.482Z,98726.31
2023-03-26T06:29:45.163Z,98725.91
2023-03-26T06:30:45.471Z,98715.84
2023-03-26T06:32:01.453Z,98704.38
2023-03-26T06:32:57.637Z,98699.84
2023-03-26T06:33:43.109Z,98703.94
2023-03-26T06:34:28.088Z,98704.13
2023-03-26T06:35:11.178Z,98683.38
2023-03-26T06:35:53.079Z,98701.22
2023-03-26T06:36:34.800Z,98692.09
2023-03-26T06:37:16.863Z,98688.22
2023-03-26T06:38:00.178Z,98679.81
2023-03-26T06:38:43.451Z,98694.25
2023-03-26T06:39:25.404Z,98691.59
2023-03-26T06:40:23.721Z,98686.53
2023-03-26T06:41:08.209Z,98662.13
2023-03-26T06:42:16.049Z,98682.09
2023-03-26T06:43:26.192Z,98661.75
2023-03-26T06:44:43.275Z,98682.31
2023-03-26T06:45:43.428Z,98682.56
2023-03-26T06:46:57.298Z,98675.47
2023-03-26T06:47:59.975Z,98673.72
2023-03-26T06:48:56.159Z,98665.63
2023-03-26T06:49:56.436Z,98669.91
2023-03-26T06:50:49.955Z,98599.91
2023-03-26T06:52:07.392Z,98667.41
2023-03-26T06:53:09.874Z,98664.59
2023-03-26T06:54:01.969Z,98663.19
2023-03-26T06:55:02.509Z,98641.44
2023-03-26T06:56:15.495Z,98641.44
2023-03-26T06:57:18.257Z,98600.59
2023-03-26T06:58:18.547Z,98647.38
2023-03-26T06:59:18.816Z,98650.66
2023-03-26T07:00:26.373Z,98654.31
2023-03-26T07:01:26.652Z,98594.34
2023-03-26T07:02:27.076Z,98649.25
2023-03-26T07:03:27.314Z,98634.81
2023-03-26T07:04:27.779Z,98650.31
2023-03-26T07:05:28.393Z,98629.97
2023-03-26T07:06:38.822Z,98651.69
2023-03-26T07:07:45.774Z,98629.94
2023-03-26T07:08:46.944Z,98638.72
2023-03-26T07:09:48.117Z,98616.13
2023-03-26T07:10:48.289Z,98644.59
2023-03-26T07:11:52.800Z,98626.09
2023-03-26T07:12:57.016Z,98647.66
2023-03-26T07:13:51.512Z,98646.44
2023-03-26T07:15:01.742Z,98623.66
2023-03-26T07:16:09.746Z,98641.34
2023-03-26T07:17:26.791Z,98636.88
2023-03-26T07:18:18.518Z,98623.25
2023-03-26T07:19:01.128Z,98614.09
2023-03-26T07:19:48.872Z,98627.31
2023-03-26T07:20:31.406Z,98623.06
2023-03-26T07:21:13.964Z,98623.06
2023-03-26T07:21:56.161Z,98621.63
2023-03-26T07:22:57.070Z,98630.16
2023-03-26T07:23:58.559Z,98615.72
2023-03-26T07:24:59.266Z,98615.53
2023-03-26T07:26:00.507Z,98621.81
2023-03-26T07:27:13.474Z,98621.84
2023-03-26T07:27:56.266Z,98620.38
2023-03-26T07:29:12.249Z,98601.31
2023-03-26T07:30:29.854Z,98614.69
2023-03-26T07:32:02.248Z,98614.47
2023-03-26T07:33:14.262Z,98613.47
2023-03-26T07:34:31.840Z,98615.28
2023-03-26T07:36:02.807Z,98612.25
2023-03-26T07:37:23.906Z,98594.75
2023-03-26T07:39:01.725Z,98611.00
2023-03-26T07:40:30.215Z,98611.03
2023-03-26T07:42:01.796Z,98608.59
2023-03-26T07:43:28.948Z,98604.72
2023-03-26T07:44:56.222Z,98595.16
2023-03-26T07:45:56.276Z,98578.28
2023-03-26T07:46:59.584Z,98590.47
2023-03-26T07:47:58.698Z,98598.00
2023-03-26T07:49:12.916Z,98601.44
2023-03-26T07:50:18.209Z,98591.88
2023-03-26T07:51:13.981Z,98594.72
2023-03-26T07:52:16.243Z,98593.28
2023-03-26T07:53:09.967Z,98593.47
2023-03-26T07:54:12.339Z,98593.88
2023-03-26T07:54:54.932Z,98585.53
2023-03-26T07:56:07.674Z,98582.66
2023-03-26T07:57:17.628Z,98585.09
2023-03-26T07:58:38.301Z,98580.22
2023-03-26T07:59:55.358Z,98582.63
2023-03-26T08:01:02.544Z,98576.72
2023-03-26T08:02:31.603Z,98577.78
2023-03-26T08:03:23.503Z,98579.97
2023-03-26T08:04:44.529Z,98580.59
2023-03-26T08:06:14.706Z,98579.78
2023-03-26T08:07:15.503Z,98577.97
2023-03-26T08:08:25.473Z,98582.66
2023-03-26T08:09:47.765Z,98583.88
2023-03-26T08:10:48.186Z,98576.56
2023-03-26T08:11:53.783Z,98576.00
2023-03-26T08:12:54.207Z,98580.66
2023-03-26T08:14:00.243Z,98579.25
2023-03-26T08:15:03.090Z,98579.84
2023-03-26T08:16:06.549Z,98587.19
2023-03-26T08:16:54.301Z,98587.38
2023-03-26T08:17:42.699Z,98589.41
2023-03-26T08:18:44.710Z,98587.19
2023-03-26T08:19:42.308Z,98581.06
2023-03-26T08:20:35.029Z,98586.81
2023-03-26T08:21:31.762Z,98581.91
2023-03-26T08:22:28.641Z,98572.56
2023-03-26T08:23:27.797Z,98564.44
2023-03-26T08:24:27.323Z,98572.78
2023-03-26T08:25:24.293Z,98573.41
2023-03-26T08:26:16.342Z,98565.88
2023-03-26T08:27:15.310Z,98565.28
2023-03-26T08:28:02.694Z,98560.00
2023-03-26T08:29:12.245Z,98559.75
2023-03-26T08:30:18.828Z,98552.88
2023-03-26T08:31:02.961Z,98548.16
2023-03-26T08:31:47.943Z,98550.41
2023-03-26T08:32:29.968Z,98534.56
2023-03-26T08:33:20.588Z,98549.97
2023-03-26T08:34:02.586Z,98546.31
2023-03-26T08:34:45.165Z,98553.19
2023-03-26T08:35:28.465Z,98547.28
2023-03-26T08:36:10.269Z,98536.75
2023-03-26T08:36:52.032Z,98548.31
2023-03-26T08:37:34.463Z,98532.47
2023-03-26T08:38:18.984Z,98551.41
2023-03-26T08:39:01.221Z,98548.31
2023-03-26T08:39:43.079Z,98548.91
2023-03-26T08:40:49.103Z,98549.31
2023-03-26T08:41:51.703Z,98547.69
2023-03-26T08:42:45.269Z,98554.38
2023-03-26T08:43:38.779Z,98544.56
2023-03-26T08:44:58.949Z,98548.22
2023-03-26T08:45:53.967Z,98545.72
2023-03-26T08:46:53.753Z,98544.50
2023-03-26T08:48:06.475Z,98543.06
2023-03-26T08:49:29.576Z,98543.22
2023-03-26T08:50:39.910Z,98553.63
2023-03-26T08:51:52.735Z,98557.09
2023-03-26T08:52:52.826Z,98561.38
2023-03-26T08:53:56.354Z,98554.06
2023-03-26T08:54:48.088Z,98554.84
2023-03-26T08:55:52.074Z,98561.56
2023-03-26T08:57:02.516Z,98558.72
2023-03-26T08:57:49.935Z,98558.72
2023-03-26T08:58:46.738Z,98564.19
2023-03-26T09:00:11.284Z,98550.59
2023-03-26T09:01:02.985Z,98540.88
2023-03-26T09:01:50.812Z,98550.34
2023-03-26T09:03:09.376Z,98555.22
2023-03-26T09:04:28.577Z,98556.28
2023-03-26T09:05:43.531Z,98553.38
2023-03-26T09:06:46.782Z,98546.03
2023-03-26T09:08:05.474Z,98546.22
2023-03-26T09:09:19.039Z,98539.66
2023-03-26T09:10:27.997Z,98540.53
2023-03-26T09:11:40.215Z,98531.16
2023-03-26T09:12:43.240Z,98534.22
2023-03-26T09:13:43.586Z,98535.28
2023-03-26T09:14:34.699Z,98531.66
2023-03-26T09:16:06.396Z,98530.88
2023-03-26T09:17:23.508Z,98531.72
2023-03-26T09:18:11.089Z,98539.47
2023-03-26T09:19:26.379Z,98531.25
2023-03-26T09:20:48.152Z,98528.16
2023-03-26T09:21:55.737Z,98522.66
2023-03-26T09:22:59.014Z,98525.13
2023-03-26T09:23:40.606Z,98524.31
2023-03-26T09:25:08.573Z,98514.31
2023-03-26T09:26:27.879Z,98524.03
2023-03-26T09:27:15.599Z,98528.31
2023-03-26T09:28:34.766Z,98525.03
2023-03-26T09:29:37.865Z,98527.03
2023-03-26T09:30:46.890Z,98518.72
2023-03-26T09:32:00.653Z,98512.34
2023-03-26T09:33:09.708Z,98524.72
2023-03-26T09:34:26.685Z,98519.00
2023-03-26T09:35:23.435Z,98524.06
2023-03-26T09:36:17.404Z,98521.81
2023-03-26T09:37:14.117Z,98525.28
2023-03-26T09:38:01.075Z,98523.44
2023-03-26T09:39:00.289Z,98524.00
2023-03-26T09:39:57.665Z,98513.78
2023-03-26T09:41:06.715Z,98520.72
2023-03-26T09:41:58.248Z,98519.25
2023-03-26T09:42:49.428Z,98528.38
2023-03-26T09:43:56.340Z,98524.47
2023-03-26T09:44:43.811Z,98525.41
2023-03-26T09:45:49.464Z,98520.50
2023-03-26T09:46:52.728Z,98502.59
2023-03-26T09:47:47.861Z,98504.88
2023-03-26T09:48:35.966Z,98504.50
2023-03-26T09:49:29.627Z,98500.50
2023-03-26T09:50:29.691Z,98504.53
2023-03-26T09:51:37.316Z,98505.25
2023-03-26T09:52:37.420Z,98501.91
2023-03-26T09:53:51.354Z,98500.53
2023-03-26T09:54:55.975Z,98505.34
2023-03-26T09:56:10.807Z,98509.66
2023-03-26T09:57:04.350Z,98512.47
2023-03-26T09:58:04.404Z,98503.34
2023-03-26T09:59:13.358Z,98507.16
2023-03-26T10:00:04.958Z,98516.38
2023-03-26T10:01:06.679Z,98508.03
2023-03-26T10:01:51.464Z,98507.00
2023-03-26T10:02:47.601Z,98514.53
2023-03-26T10:03:50.632Z,98507.91
2023-03-26T10:04:33.290Z,98502.53
2023-03-26T10:05:39.053Z,98497.50
2023-03-26T10:06:51.374Z,98498.38
2023-03-26T10:08:12.463Z,98496.88
2023-03-26T10:09:05.074Z,98499.06
2023-03-26T10:10:05.458Z,98504.97
2023-03-26T10:11:18.593Z,98501.13
2023-03-26T10:12:18.875Z,98506.06
2023-03-26T10:13:14.647Z,98503.47
2023-03-26T10:14:18.747Z,98505.53
2023-03-26T10:15:42.128Z,98509.00
2023-03-26T10:16:59.969Z,98500.69
2023-03-26T10:17:50.852Z,98514.91
2023-03-26T10:18:32.527Z,98507.16
2023-03-26T10:19:24.853Z,98506.81